Aviation Digital Data Service (ADDS)

Output produced by TAFs form (1815 UTC 26 September 2017)
found at http://aviationweather.gov/adds/tafs/
 
KEMT 261745Z 21003KT 10SM CLR 28/04 A2985
KPOC 261747Z 26007KT 10SM CLR 26/00 A2987
KFUL 261753Z 22005KT CLR 27/09 A2981 RMK AO2 SLP094 6//// T02670089 10267 20144 50003 PNO $
KBUR 261753Z 12005KT 10SM CLR 26/M01 A2983 RMK AO2 SLP088 T02611006 10261 20150 50004
KBUR 261735Z 2618/2718 15004KT P6SM SKC 
     FM262000 17007KT P6SM SKC 
     FM270300 VRB03KT P6SM SKC
       
KONT 261753Z 27007KT 10SM FEW250 28/M02 A2983 RMK AO2 SLP086 T02781022 10278 20133 50002
KONT 261729Z 2618/2724 VRB05KT P6SM SKC 
     FM262000 26011KT P6SM SKC 
     FM270300 VRB05KT P6SM SKC WS020/04019KT 
     FM271800 VRB05KT P6SM SKC 
     FM272000 26011KT P6SM SKC
       
KCNO 261753Z VRB03KT 10SM FEW120 29/01 A2984 RMK AO2 SLP097 T02890006 10289 20111 58002 $
KAJO 261756Z AUTO 27003KT 10SM CLR 27/04 A2983 RMK AO2 SLP106 T02720039 10272 20061 58005
KLGB 261753Z 21006KT 10SM CLR 24/13 A2983 RMK AO2 SLP100 T02440128 10244 20150 51005
KLGB 261735Z 2618/2718 09003KT P6SM SKC 
     FM262000 21007KT P6SM SKC 
     FM262300 29010KT P6SM SKC 
     FM270400 VRB03KT P6SM SKC 
     FM271100 VRB03KT 6SM HZ SCT008
       
KTOA 261747Z VRB05KT 10SM SCT250 22/15 A2983
KHHR 261753Z 19004KT 10SM CLR 26/11 A2983 RMK AO2 SLP098 T02560106 10256 20172 50004
KLAX 261753Z VRB04KT 10SM FEW010 FEW110 SCT160 26/10 A2982 RMK AO2 SLP097 FU FEW010 T02560100 10261 20161 50006 $
KLAX 261735Z 2618/2724 12005KT P6SM SCT160 
     FM261900 26010KT P6SM SKC 
     FM270500 VRB03KT P6SM SKC 
     FM271200 VRB03KT 6SM HZ SCT008 
     FM271700 27006KT P6SM SKC 
     FM272000 26010KT P6SM SKC
       
KAVX 261751Z AUTO 04005KT 10SM CLR 26/13 A2988 RMK AO2 SLP089 T02560128 10267 20211 51009
KSMO 261751Z AUTO 18004KT 10SM CLR 25/08 A2983 RMK AO2 SLP099 T02500078 10250 20161 50005
KSMO 261735Z 2618/2718 00000KT P6SM SKC 
     FM261900 23008KT P6SM SKC 
     FM270300 VRB03KT P6SM SKC
       
KCMA 261755Z 24005KT 10SM CLR 27/04 A2980 RMK AO2 SLP099 T02720044 10272 20122 50000
KCMA 261735Z 2618/2718 00000KT P6SM SKC 
     FM262100 24008KT P6SM SKC 
     FM270300 VRB03KT P6SM SKC
       
KOXR 261751Z 19007KT 10SM CLR 24/03 A2981 RMK AO2 SLP094 T02440033 10250 20156 50004
KOXR 261735Z 2618/2718 03005KT P6SM SKC 
     FM262000 27008KT P6SM SKC 
     FM270300 VRB03KT P6SM SKC
       
KRAL 261753Z VRB06KT 10SM CLR 30/M01 A2982 RMK AO2 SLP080 T03001006 10300 20133 58005
KRIV 261758Z AUTO 00000KT 10SM CLR 26/M03 A2985 RMK AO2 SLP096 T02631029 10263 20085 58001
TAF KRIV 261208Z 2612/2718 VRB04KT 9999 FEW250 QNH2982INS 
     BECMG 2616/2617 34009KT 9999 FEW250 QNH2981INS 
     TEMPO 2620/2702 34012G20KT WND 310V040 
     BECMG 2703/2704 VRB04KT 9999 SKC QNH2984INS 
     BECMG 2716/2717 31009KT 9999 SKC QNH2990INS TX30/2622Z TN07/2614Z
       
KF70 261755Z AUTO 00000KT 10SM CLR 25/00 A2986 RMK AO1
KRNM 261753Z AUTO 30007KT 10SM CLR 27/00 A2986 RMK AO2 SLP098 T02670000 10272 20078 53002
KCRQ 261753Z AUTO 17003KT 10SM CLR 26/06 A2982 RMK AO2 SLP096 T02560056 10256 20150 50004
KCRQ 261729Z 2618/2718 VRB05KT P6SM SKC 
     FM261900 25009KT P6SM SKC 
     FM270100 VRB04KT P6SM SKC 
     FM271100 VRB03KT P6SM VCFG SCT002 
     FM271600 VRB04KT P6SM FEW005
       
KOKB 261752Z AUTO 24005KT 10SM CLR 26/10 A2982 RMK AO2 SLP096 T02560100 10261 20083 50001
KIZA 261755Z AUTO 00000KT 10SM CLR 27/02 A2982 RMK AO2